sensor_id;sensor_type;location;lat;lon;timestamp;pressure;altitude;pressure_sealevel;temperature;humidity
10476;BME280;26166;48.264;11.436;2023-02-17T00:02:20;97067.75;;;9.34;49.29
10476;BME280;26166;48.264;11.436;2023-02-17T00:05:20;97063.38;;;9.34;49.19
10476;BME280;26166;48.264;11.436;2023-02-17T00:08:20;97071.91;;;9.37;49.33
10476;BME280;26166;48.264;11.436;2023-02-17T00:11:20;97067.75;;;9.34;49.28
10476;BME280;26166;48.264;11.436;2023-02-17T00:14:21;97059.78;;;9.35;49.38
10476;BME280;26166;48.264;11.436;2023-02-17T00:17:21;97066.00;;;9.34;49.29
10476;BME280;26166;48.264;11.436;2023-02-17T00:20:21;97066.94;;;9.33;49.41
10476;BME280;26166;48.264;11.436;2023-02-17T00:23:22;97060.88;;;9.33;49.38
10476;BME280;26166;48.264;11.436;2023-02-17T00:26:22;97058.13;;;9.34;49.34
10476;BME280;26166;48.264;11.436;2023-02-17T00:29:22;97054.53;;;9.35;49.45
10476;BME280;26166;48.264;11.436;2023-02-17T00:32:22;97055.50;;;9.34;49.54
10476;BME280;26166;48.264;11.436;2023-02-17T00:35:22;97054.78;;;9.32;49.41
10476;BME280;26166;48.264;11.436;2023-02-17T00:38:23;97047.09;;;9.31;49.24
10476;BME280;26166;48.264;11.436;2023-02-17T00:41:24;97059.22;;;9.32;49.46
10476;BME280;26166;48.264;11.436;2023-02-17T00:44:24;97054.78;;;9.32;49.34
10476;BME280;26166;48.264;11.436;2023-02-17T00:47:24;97060.88;;;9.33;49.35
10476;BME280;26166;48.264;11.436;2023-02-17T00:50:25;97062.66;;;9.32;49.48
10476;BME280;26166;48.264;11.436;2023-02-17T00:53:25;97059.22;;;9.32;49.73
10476;BME280;26166;48.264;11.436;2023-02-17T00:56:25;97056.44;;;9.33;49.36
10476;BME280;26166;48.264;11.436;2023-02-17T00:59:25;97060.88;;;9.33;49.61
10476;BME280;26166;48.264;11.436;2023-02-17T01:02:26;97058.13;;;9.34;49.60
10476;BME280;26166;48.264;11.436;2023-02-17T01:05:26;97056.44;;;9.33;49.24
10476;BME280;26166;48.264;11.436;2023-02-17T01:08:26;97052.03;;;9.34;49.50
10476;BME280;26166;48.264;11.436;2023-02-17T01:11:27;97055.78;;;9.31;49.61
10476;BME280;26166;48.264;11.436;2023-02-17T01:14:28;97053.97;;;9.32;49.53
10476;BME280;26166;48.264;11.436;2023-02-17T01:17:28;97049.41;;;9.34;49.40
10476;BME280;26166;48.264;11.436;2023-02-17T01:20:28;97051.19;;;9.33;49.54
10476;BME280;26166;48.264;11.436;2023-02-17T01:23:28;97056.75;;;9.30;49.53
10476;BME280;26166;48.264;11.436;2023-02-17T01:26:29;97054.94;;;9.31;49.68
10476;BME280;26166;48.264;11.436;2023-02-17T01:29:30;97054.13;;;9.30;49.67
10476;BME280;26166;48.264;11.436;2023-02-17T01:32:30;97050.53;;;9.31;49.49
10476;BME280;26166;48.264;11.436;2023-02-17T01:35:32;97055.78;;;9.31;49.64
10476;BME280;26166;48.264;11.436;2023-02-17T01:38:33;97060.03;;;9.32;49.45
10476;BME280;26166;48.264;11.436;2023-02-17T01:41:33;97053.16;;;9.31;49.62
10476;BME280;26166;48.264;11.436;2023-02-17T01:44:33;97053.16;;;9.31;49.57
10476;BME280;26166;48.264;11.436;2023-02-17T01:47:33;97050.53;;;9.31;49.63
10476;BME280;26166;48.264;11.436;2023-02-17T01:50:35;97047.75;;;9.33;49.71
10476;BME280;26166;48.264;11.436;2023-02-17T01:53:39;97048.72;;;9.32;49.69
10476;BME280;26166;48.264;11.436;2023-02-17T01:56:42;97043.47;;;9.32;49.71
10476;BME280;26166;48.264;11.436;2023-02-17T01:59:43;97035.78;;;9.30;49.69
10476;BME280;26166;48.264;11.436;2023-02-17T02:02:44;97040.03;;;9.31;49.67
10476;BME280;26166;48.264;11.436;2023-02-17T02:05:46;97041.69;;;9.32;49.52
10476;BME280;26166;48.264;11.436;2023-02-17T02:09:08;97036.44;;;9.32;49.52
10476;BME280;26166;48.264;11.436;2023-02-17T02:12:23;97029.97;;;9.37;49.64
10476;BME280;26166;48.264;11.436;2023-02-17T02:15:24;97024.97;;;9.33;49.45
10476;BME280;26166;48.264;11.436;2023-02-17T02:22:06;97023.75;;;9.38;49.48
10476;BME280;26166;48.264;11.436;2023-02-17T02:28:16;97031.59;;;9.38;49.39
10476;BME280;26166;48.264;11.436;2023-02-17T02:31:27;97027.19;;;9.38;49.46
10476;BME280;26166;48.264;11.436;2023-02-17T02:34:45;97029.69;;;9.40;49.52
10476;BME280;26166;48.264;11.436;2023-02-17T02:37:48;97034.09;;;9.39;49.54
10476;BME280;26166;48.264;11.436;2023-02-17T02:41:14;97025.25;;;9.40;49.45
10476;BME280;26166;48.264;11.436;2023-02-17T02:44:13;97028.03;;;9.39;49.47
10476;BME280;26166;48.264;11.436;2023-02-17T02:53:57;97013.94;;;9.40;49.49
10476;BME280;26166;48.264;11.436;2023-02-17T02:57:05;97001.81;;;9.39;49.47
10476;BME280;26166;48.264;11.436;2023-02-17T03:03:15;97001.81;;;9.39;49.35
10476;BME280;26166;48.264;11.436;2023-02-17T03:06:18;96992.00;;;9.41;49.50
10476;BME280;26166;48.264;11.436;2023-02-17T03:09:20;96992.00;;;9.41;49.42
10476;BME280;26166;48.264;11.436;2023-02-17T03:12:22;96987.72;;;9.40;49.43
10476;BME280;26166;48.264;11.436;2023-02-17T03:15:27;96982.50;;;9.40;49.52
10476;BME280;26166;48.264;11.436;2023-02-17T03:18:30;96987.72;;;9.40;49.50
10476;BME280;26166;48.264;11.436;2023-02-17T03:21:34;96979.03;;;9.39;49.43
10476;BME280;26166;48.264;11.436;2023-02-17T03:24:36;96975.59;;;9.39;49.39
10476;BME280;26166;48.264;11.436;2023-02-17T03:27:37;96975.59;;;9.39;49.16
10476;BME280;26166;48.264;11.436;2023-02-17T03:30:37;96969.50;;;9.38;49.50
10476;BME280;26166;48.264;11.436;2023-02-17T03:33:37;96967.03;;;9.37;49.34
10476;BME280;26166;48.264;11.436;2023-02-17T03:36:38;96976.41;;;9.39;49.20
10476;BME280;26166;48.264;11.436;2023-02-17T03:39:38;96977.25;;;9.40;49.16
10476;BME280;26166;48.264;11.436;2023-02-17T03:42:38;96971.19;;;9.39;49.16
10476;BME280;26166;48.264;11.436;2023-02-17T03:45:38;96972.97;;;9.39;48.99
10476;BME280;26166;48.264;11.436;2023-02-17T03:48:38;96974.47;;;9.41;49.07
10476;BME280;26166;48.264;11.436;2023-02-17T03:51:39;96972.13;;;9.38;49.00
10476;BME280;26166;48.264;11.436;2023-02-17T03:54:39;96970.34;;;9.39;49.15
10476;BME280;26166;48.264;11.436;2023-02-17T03:57:39;96973.66;;;9.41;48.94
10476;BME280;26166;48.264;11.436;2023-02-17T04:00:39;96973.81;;;9.39;49.11
10476;BME280;26166;48.264;11.436;2023-02-17T04:03:40;96964.13;;;9.40;49.00
10476;BME280;26166;48.264;11.436;2023-02-17T04:06:40;96963.31;;;9.39;48.85
10476;BME280;26166;48.264;11.436;2023-02-17T04:09:44;96961.50;;;9.40;48.86
10476;BME280;26166;48.264;11.436;2023-02-17T04:12:44;96953.50;;;9.41;48.82
10476;BME280;26166;48.264;11.436;2023-02-17T04:15:44;96956.13;;;9.41;48.72
10476;BME280;26166;48.264;11.436;2023-02-17T04:18:44;96949.06;;;9.42;48.72
10476;BME280;26166;48.264;11.436;2023-02-17T04:21:44;96952.66;;;9.41;48.94
10476;BME280;26166;48.264;11.436;2023-02-17T04:24:45;96957.91;;;9.41;48.72
10476;BME280;26166;48.264;11.436;2023-02-17T04:27:45;96956.94;;;9.42;48.81
10476;BME280;26166;48.264;11.436;2023-02-17T04:30:46;96946.44;;;9.42;48.69
10476;BME280;26166;48.264;11.436;2023-02-17T04:33:46;96950.72;;;9.43;48.85
10476;BME280;26166;48.264;11.436;2023-02-17T04:36:46;96947.41;;;9.41;48.56
10476;BME280;26166;48.264;11.436;2023-02-17T04:39:47;96958.59;;;9.43;48.60
10476;BME280;26166;48.264;11.436;2023-02-17T04:42:47;96956.94;;;9.42;48.67
10476;BME280;26166;48.264;11.436;2023-02-17T04:45:47;96955.13;;;9.42;48.23
10476;BME280;26166;48.264;11.436;2023-02-17T04:48:47;96955.97;;;9.43;48.32
10476;BME280;26166;48.264;11.436;2023-02-17T04:51:48;96948.94;;;9.43;48.21
10476;BME280;26166;48.264;11.436;2023-02-17T04:54:48;96939.13;;;9.45;48.31
10476;BME280;26166;48.264;11.436;2023-02-17T04:57:48;96949.63;;;9.45;48.02
10476;BME280;26166;48.264;11.436;2023-02-17T05:00:48;96945.19;;;9.46;48.26
10476;BME280;26166;48.264;11.436;2023-02-17T05:03:55;96943.28;;;9.48;48.07
10476;BME280;26166;48.264;11.436;2023-02-17T05:06:55;96941.31;;;9.50;48.07
10476;BME280;26166;48.264;11.436;2023-02-17T05:09:56;96939.69;;;9.49;48.09
10476;BME280;26166;48.264;11.436;2023-02-17T05:12:56;96940.50;;;9.49;48.01
10476;BME280;26166;48.264;11.436;2023-02-17T05:15:56;96936.06;;;9.50;48.14
10476;BME280;26166;48.264;11.436;2023-02-17T05:18:56;96932.47;;;9.51;48.04
10476;BME280;26166;48.264;11.436;2023-02-17T05:21:56;96938.41;;;9.53;48.16
10476;BME280;26166;48.264;11.436;2023-02-17T05:24:57;96934.00;;;9.53;48.40
10476;BME280;26166;48.264;11.436;2023-02-17T05:27:57;96929.72;;;9.52;48.52
10476;BME280;26166;48.264;11.436;2023-02-17T05:30:57;96921.03;;;9.52;48.60
10476;BME280;26166;48.264;11.436;2023-02-17T05:33:59;96928.91;;;9.52;48.72
10476;BME280;26166;48.264;11.436;2023-02-17T05:36:59;96932.19;;;9.54;48.85
10476;BME280;26166;48.264;11.436;2023-02-17T05:39:59;96926.94;;;9.54;48.93
10476;BME280;26166;48.264;11.436;2023-02-17T05:42:59;96924.88;;;9.57;48.86
10476;BME280;26166;48.264;11.436;2023-02-17T05:46:00;96933.41;;;9.59;49.13
10476;BME280;26166;48.264;11.436;2023-02-17T05:49:01;96922.78;;;9.61;49.00
10476;BME280;26166;48.264;11.436;2023-02-17T05:52:01;96930.50;;;9.63;49.06
10476;BME280;26166;48.264;11.436;2023-02-17T05:55:01;96937.41;;;9.64;49.29
10476;BME280;26166;48.264;11.436;2023-02-17T05:58:03;96934.66;;;9.65;49.27
10476;BME280;26166;48.264;11.436;2023-02-17T06:01:10;96936.31;;;9.66;49.29
10476;BME280;26166;48.264;11.436;2023-02-17T06:04:11;96947.63;;;9.67;49.58
10476;BME280;26166;48.264;11.436;2023-02-17T06:07:11;96952.03;;;9.66;49.52
10476;BME280;26166;48.264;11.436;2023-02-17T06:10:11;96962.53;;;9.66;49.68
10476;BME280;26166;48.264;11.436;2023-02-17T06:13:11;96970.25;;;9.68;49.87
10476;BME280;26166;48.264;11.436;2023-02-17T06:16:12;96971.78;;;9.70;49.75
10476;BME280;26166;48.264;11.436;2023-02-17T06:19:12;96973.13;;;9.74;49.82
10476;BME280;26166;48.264;11.436;2023-02-17T06:22:12;96973.81;;;9.76;50.21
10476;BME280;26166;48.264;11.436;2023-02-17T06:25:12;96961.66;;;9.75;51.25
10476;BME280;26166;48.264;11.436;2023-02-17T06:28:12;96961.66;;;9.75;51.93
10476;BME280;26166;48.264;11.436;2023-02-17T06:31:12;96961.66;;;9.75;52.26
10476;BME280;26166;48.264;11.436;2023-02-17T06:34:13;96962.34;;;9.77;52.51
10476;BME280;26166;48.264;11.436;2023-02-17T06:37:13;96961.22;;;9.80;52.67
10476;BME280;26166;48.264;11.436;2023-02-17T06:40:13;96959.44;;;9.80;52.72
10476;BME280;26166;48.264;11.436;2023-02-17T06:43:13;96953.63;;;9.77;53.52
10476;BME280;26166;48.264;11.436;2023-02-17T06:46:14;96958.06;;;9.76;53.74
10476;BME280;26166;48.264;11.436;2023-02-17T06:49:14;96960.16;;;9.73;53.31
10476;BME280;26166;48.264;11.436;2023-02-17T06:52:14;96962.09;;;9.71;53.60
10476;BME280;26166;48.264;11.436;2023-02-17T06:55:15;96959.59;;;9.69;53.63
10476;BME280;26166;48.264;11.436;2023-02-17T06:58:15;96964.03;;;9.69;53.63
10476;BME280;26166;48.264;11.436;2023-02-17T07:01:16;96967.47;;;9.69;53.79
10476;BME280;26166;48.264;11.436;2023-02-17T07:04:16;96964.19;;;9.67;54.01
10476;BME280;26166;48.264;11.436;2023-02-17T07:07:17;96959.75;;;9.68;53.54
10476;BME280;26166;48.264;11.436;2023-02-17T07:10:17;96960.56;;;9.68;53.86
10476;BME280;26166;48.264;11.436;2023-02-17T07:13:17;96967.34;;;9.71;53.47
10476;BME280;26166;48.264;11.436;2023-02-17T07:16:17;96963.91;;;9.70;54.29
10476;BME280;26166;48.264;11.436;2023-02-17T07:19:18;96971.06;;;9.68;53.92
10476;BME280;26166;48.264;11.436;2023-02-17T07:22:18;96968.16;;;9.71;54.03
10476;BME280;26166;48.264;11.436;2023-02-17T07:25:18;96981.28;;;9.71;54.32
10476;BME280;26166;48.264;11.436;2023-02-17T07:28:18;96980.47;;;9.71;54.50
10476;BME280;26166;48.264;11.436;2023-02-17T07:31:19;96987.19;;;9.73;54.10
10476;BME280;26166;48.264;11.436;2023-02-17T07:34:19;96974.09;;;9.73;54.44
10476;BME280;26166;48.264;11.436;2023-02-17T07:37:19;96976.03;;;9.71;54.66
10476;BME280;26166;48.264;11.436;2023-02-17T07:40:20;96974.25;;;9.72;54.27
10476;BME280;26166;48.264;11.436;2023-02-17T07:43:20;96975.06;;;9.72;54.54
10476;BME280;26166;48.264;11.436;2023-02-17T07:46:21;96985.41;;;9.74;54.28
10476;BME280;26166;48.264;11.436;2023-02-17T07:49:21;96977.41;;;9.75;54.39
10476;BME280;26166;48.264;11.436;2023-02-17T07:52:21;96982.38;;;9.78;54.43
10476;BME280;26166;48.264;11.436;2023-02-17T07:55:22;96992.56;;;9.81;54.14
10476;BME280;26166;48.264;11.436;2023-02-17T07:58:23;96987.03;;;9.84;54.25
10476;BME280;26166;48.264;11.436;2023-02-17T08:01:23;96984.25;;;9.86;54.42
10476;BME280;26166;48.264;11.436;2023-02-17T08:04:24;96987.72;;;9.86;54.49
10476;BME280;26166;48.264;11.436;2023-02-17T08:07:24;96988.41;;;9.89;54.00
10476;BME280;26166;48.264;11.436;2023-02-17T08:10:25;96995.31;;;9.90;54.38
10476;BME280;26166;48.264;11.436;2023-02-17T08:13:44;96996.13;;;9.90;54.30
10476;BME280;26166;48.264;11.436;2023-02-17T08:16:44;96999.28;;;9.94;54.43
10476;BME280;26166;48.264;11.436;2023-02-17T08:19:44;97001.91;;;9.94;54.41
10476;BME280;26166;48.264;11.436;2023-02-17T08:22:44;97005.22;;;9.96;54.41
10476;BME280;26166;48.264;11.436;2023-02-17T08:25:44;97000.13;;;9.94;55.28
10476;BME280;26166;48.264;11.436;2023-02-17T08:28:45;96995.03;;;9.93;55.23
10476;BME280;26166;48.264;11.436;2023-02-17T08:31:45;96995.31;;;9.90;55.34
10476;BME280;26166;48.264;11.436;2023-02-17T08:34:45;96993.94;;;9.85;55.63
10476;BME280;26166;48.264;11.436;2023-02-17T08:37:45;96994.22;;;9.82;55.71
10476;BME280;26166;48.264;11.436;2023-02-17T08:40:45;97001.25;;;9.82;56.06
10476;BME280;26166;48.264;11.436;2023-02-17T08:43:46;97009.00;;;9.83;55.69
10476;BME280;26166;48.264;11.436;2023-02-17T08:46:46;97012.31;;;9.85;56.27
10476;BME280;26166;48.264;11.436;2023-02-17T08:49:47;97013.28;;;9.84;55.87
10476;BME280;26166;48.264;11.436;2023-02-17T08:52:47;97033.84;;;9.89;55.71
10476;BME280;26166;48.264;11.436;2023-02-17T08:55:47;97026.50;;;9.93;55.96
10476;BME280;26166;48.264;11.436;2023-02-17T08:58:47;97034.06;;;9.96;55.79
10476;BME280;26166;48.264;11.436;2023-02-17T09:01:47;97024.56;;;9.95;56.58
10476;BME280;26166;48.264;11.436;2023-02-17T09:04:48;97020.97;;;9.96;57.81
10476;BME280;26166;48.264;11.436;2023-02-17T09:07:48;97030.63;;;9.95;57.67
10476;BME280;26166;48.264;11.436;2023-02-17T09:10:48;97028.16;;;9.94;58.25
10476;BME280;26166;48.264;11.436;2023-02-17T09:13:48;97017.94;;;9.91;58.58
10476;BME280;26166;48.264;11.436;2023-02-17T09:16:49;97022.38;;;9.90;58.40
10476;BME280;26166;48.264;11.436;2023-02-17T09:19:50;97026.78;;;9.90;58.29
10476;BME280;26166;48.264;11.436;2023-02-17T09:22:50;97024.00;;;9.91;58.49
10476;BME280;26166;48.264;11.436;2023-02-17T09:25:59;97020.44;;;9.92;58.31
10476;BME280;26166;48.264;11.436;2023-02-17T09:29:00;97015.31;;;9.91;58.21
10476;BME280;26166;48.264;11.436;2023-02-17T09:32:08;97017.94;;;9.91;58.30
10476;BME280;26166;48.264;11.436;2023-02-17T09:35:12;97014.66;;;9.89;58.31
10476;BME280;26166;48.264;11.436;2023-02-17T09:38:12;97016.88;;;9.83;58.80
10476;BME280;26166;48.264;11.436;2023-02-17T09:44:20;97031.38;;;9.88;58.44
10476;BME280;26166;48.264;11.436;2023-02-17T09:47:24;97029.56;;;9.88;58.90
10476;BME280;26166;48.264;11.436;2023-02-17T09:50:31;97022.25;;;9.92;58.15
10476;BME280;26166;48.264;11.436;2023-02-17T09:53:46;97031.34;;;9.97;57.81
10476;BME280;26166;48.264;11.436;2023-02-17T09:56:50;97027.06;;;9.96;57.96
10476;BME280;26166;48.264;11.436;2023-02-17T09:59:56;97026.75;;;9.99;58.08
10476;BME280;26166;48.264;11.436;2023-02-17T10:03:03;97030.47;;;10.06;57.72
10476;BME280;26166;48.264;11.436;2023-02-17T10:09:16;97033.19;;;10.15;57.12
10476;BME280;26166;48.264;11.436;2023-02-17T10:12:25;97031.94;;;10.19;57.05
10476;BME280;26166;48.264;11.436;2023-02-17T10:15:38;97030.81;;;10.21;57.02
10476;BME280;26166;48.264;11.436;2023-02-17T10:18:40;97010.63;;;10.22;56.97
10476;BME280;26166;48.264;11.436;2023-02-17T10:21:45;97015.19;;;10.29;57.08
10476;BME280;26166;48.264;11.436;2023-02-17T10:24:48;97010.03;;;10.38;57.09
10476;BME280;26166;48.264;11.436;2023-02-17T10:27:54;97023.53;;;10.43;56.92
10476;BME280;26166;48.264;11.436;2023-02-17T10:31:01;97016.75;;;10.50;56.76
10476;BME280;26166;48.264;11.436;2023-02-17T10:37:27;97011.53;;;10.58;56.40
10476;BME280;26166;48.264;11.436;2023-02-17T10:40:32;97012.09;;;10.61;55.86
10476;BME280;26166;48.264;11.436;2023-02-17T10:43:32;97022.47;;;10.63;55.72
10476;BME280;26166;48.264;11.436;2023-02-17T10:46:33;97000.47;;;10.64;55.13
10476;BME280;26166;48.264;11.436;2023-02-17T10:49:35;97005.81;;;10.72;55.51
10476;BME280;26166;48.264;11.436;2023-02-17T10:52:38;97003.75;;;10.84;54.96
10476;BME280;26166;48.264;11.436;2023-02-17T10:56:25;97008.28;;;10.92;54.54
10476;BME280;26166;48.264;11.436;2023-02-17T11:02:16;97004.63;;;11.02;55.26
10476;BME280;26166;48.264;11.436;2023-02-17T11:05:30;97012.34;;;11.04;54.74
10476;BME280;26166;48.264;11.436;2023-02-17T11:08:43;96996.94;;;11.09;54.71
10476;BME280;26166;48.264;11.436;2023-02-17T11:11:57;96994.97;;;11.11;55.03
10476;BME280;26166;48.264;11.436;2023-02-17T11:14:58;97004.38;;;11.14;54.98
10476;BME280;26166;48.264;11.436;2023-02-17T11:18:08;96999.78;;;11.16;55.47
10476;BME280;26166;48.264;11.436;2023-02-17T11:21:09;96996.19;;;11.17;55.19
10476;BME280;26166;48.264;11.436;2023-02-17T11:24:10;96988.94;;;11.19;55.02
10476;BME280;26166;48.264;11.436;2023-02-17T11:27:10;96981.88;;;11.19;55.22
10476;BME280;26166;48.264;11.436;2023-02-17T11:30:14;96970.72;;;11.17;54.18
10476;BME280;26166;48.264;11.436;2023-02-17T11:33:22;96967.38;;;11.15;54.77
10476;BME280;26166;48.264;11.436;2023-02-17T11:36:24;96964.09;;;11.13;54.67
10476;BME280;26166;48.264;11.436;2023-02-17T11:39:24;96967.19;;;11.08;55.06
10476;BME280;26166;48.264;11.436;2023-02-17T11:42:26;96940.06;;;11.08;55.42
10476;BME280;26166;48.264;11.436;2023-02-17T11:45:28;96951.25;;;11.10;55.77
10476;BME280;26166;48.264;11.436;2023-02-17T11:57:41;96927.91;;;11.07;55.26
10476;BME280;26166;48.264;11.436;2023-02-17T12:00:54;96931.19;;;11.09;55.41
10476;BME280;26166;48.264;11.436;2023-02-17T12:04:06;96931.84;;;11.11;55.27
10476;BME280;26166;48.264;11.436;2023-02-17T12:07:14;96935.34;;;11.11;55.62
10476;BME280;26166;48.264;11.436;2023-02-17T12:16:44;96914.66;;;11.17;55.33
10476;BME280;26166;48.264;11.436;2023-02-17T12:22:53;96911.69;;;11.20;55.50
10476;BME280;26166;48.264;11.436;2023-02-17T12:26:03;96912.84;;;11.17;55.11
10476;BME280;26166;48.264;11.436;2023-02-17T12:33:05;96925.19;;;11.17;56.19
10476;BME280;26166;48.264;11.436;2023-02-17T12:36:08;96951.91;;;11.30;55.88
10476;BME280;26166;48.264;11.436;2023-02-17T12:42:18;96921.03;;;11.40;55.66
10476;BME280;26166;48.264;11.436;2023-02-17T12:45:20;96917.59;;;11.40;55.44
10476;BME280;26166;48.264;11.436;2023-02-17T12:48:41;96914.81;;;11.41;55.92
10476;BME280;26166;48.264;11.436;2023-02-17T12:51:44;96931.56;;;11.40;55.21
10476;BME280;26166;48.264;11.436;2023-02-17T12:54:50;96920.88;;;11.42;55.38
10476;BME280;26166;48.264;11.436;2023-02-17T12:57:53;96902.81;;;11.39;55.17
10476;BME280;26166;48.264;11.436;2023-02-17T13:04:03;96909.72;;;11.40;55.31
10476;BME280;26166;48.264;11.436;2023-02-17T13:07:07;96902.81;;;11.39;55.17
10476;BME280;26166;48.264;11.436;2023-02-17T13:13:27;96913.28;;;11.30;55.51
10476;BME280;26166;48.264;11.436;2023-02-17T13:16:27;96924.09;;;11.27;57.27
10476;BME280;26166;48.264;11.436;2023-02-17T13:19:31;96909.94;;;11.28;56.90
10476;BME280;26166;48.264;11.436;2023-02-17T13:22:32;96921.16;;;11.30;56.66
10476;BME280;26166;48.264;11.436;2023-02-17T13:25:33;96915.06;;;11.30;57.74
10476;BME280;26166;48.264;11.436;2023-02-17T13:28:35;96916.56;;;11.32;56.95
10476;BME280;26166;48.264;11.436;2023-02-17T13:31:46;96906.03;;;11.32;57.00
10476;BME280;26166;48.264;11.436;2023-02-17T13:34:47;96909.66;;;11.31;57.27
10476;BME280;26166;48.264;11.436;2023-02-17T13:37:57;96907.31;;;11.28;56.12
10476;BME280;26166;48.264;11.436;2023-02-17T13:40:58;96903.75;;;11.29;56.11
10476;BME280;26166;48.264;11.436;2023-02-17T13:44:04;96914.38;;;11.28;56.48
10476;BME280;26166;48.264;11.436;2023-02-17T13:47:15;96910.28;;;11.25;57.44
10476;BME280;26166;48.264;11.436;2023-02-17T13:53:36;96915.69;;;11.24;56.78
10476;BME280;26166;48.264;11.436;2023-02-17T13:56:36;96907.78;;;11.24;57.20
10476;BME280;26166;48.264;11.436;2023-02-17T13:59:38;96917.50;;;11.23;56.64
10476;BME280;26166;48.264;11.436;2023-02-17T14:02:48;96910.59;;;11.22;57.63
10476;BME280;26166;48.264;11.436;2023-02-17T14:05:50;96916.13;;;11.19;57.12
10476;BME280;26166;48.264;11.436;2023-02-17T14:08:51;96917.81;;;11.20;57.84
10476;BME280;26166;48.264;11.436;2023-02-17T14:11:52;96928.16;;;11.22;56.89
10476;BME280;26166;48.264;11.436;2023-02-17T14:14:52;96922.38;;;11.18;57.08
10476;BME280;26166;48.264;11.436;2023-02-17T14:17:53;96925.53;;;11.22;58.01
10476;BME280;26166;48.264;11.436;2023-02-17T14:21:04;96919.13;;;11.24;57.69
10476;BME280;26166;48.264;11.436;2023-02-17T14:24:04;96927.03;;;11.24;57.06
10476;BME280;26166;48.264;11.436;2023-02-17T14:27:09;96934.25;;;11.22;56.63
10476;BME280;26166;48.264;11.436;2023-02-17T14:33:32;96933.06;;;11.17;57.39
10476;BME280;26166;48.264;11.436;2023-02-17T14:36:36;96931.44;;;11.16;57.60
10476;BME280;26166;48.264;11.436;2023-02-17T14:39:36;96925.31;;;11.15;58.33
10476;BME280;26166;48.264;11.436;2023-02-17T14:42:36;96933.91;;;11.17;58.26
10476;BME280;26166;48.264;11.436;2023-02-17T14:45:36;96939.16;;;11.17;58.12
10476;BME280;26166;48.264;11.436;2023-02-17T14:48:37;96929.75;;;11.15;58.12
10476;BME280;26166;48.264;11.436;2023-02-17T14:51:40;96935.84;;;11.15;58.67
10476;BME280;26166;48.264;11.436;2023-02-17T14:54:40;96942.06;;;11.14;58.19
10476;BME280;26166;48.264;11.436;2023-02-17T14:57:40;96937.50;;;11.16;58.76
10476;BME280;26166;48.264;11.436;2023-02-17T15:00:41;96939.44;;;11.14;57.86
10476;BME280;26166;48.264;11.436;2023-02-17T15:03:41;96938.78;;;11.12;57.97
10476;BME280;26166;48.264;11.436;2023-02-17T15:06:44;96935.34;;;11.11;58.05
10476;BME280;26166;48.264;11.436;2023-02-17T15:09:46;96931.72;;;11.13;59.45
10476;BME280;26166;48.264;11.436;2023-02-17T15:12:47;96927.94;;;11.15;58.71
10476;BME280;26166;48.264;11.436;2023-02-17T15:15:47;96923.53;;;11.16;58.56
10476;BME280;26166;48.264;11.436;2023-02-17T15:18:48;96918.13;;;11.17;58.45
10476;BME280;26166;48.264;11.436;2023-02-17T15:21:50;96917.44;;;11.15;57.83
10476;BME280;26166;48.264;11.436;2023-02-17T15:24:50;96908.41;;;11.18;58.90
10476;BME280;26166;48.264;11.436;2023-02-17T15:27:50;96910.41;;;11.16;58.30
10476;BME280;26166;48.264;11.436;2023-02-17T15:30:52;96905.72;;;11.09;58.78
10476;BME280;26166;48.264;11.436;2023-02-17T15:33:54;96899.66;;;11.09;58.14
10476;BME280;26166;48.264;11.436;2023-02-17T15:36:56;96906.03;;;11.06;58.31
10476;BME280;26166;48.264;11.436;2023-02-17T15:39:56;96899.47;;;11.02;58.71
10476;BME280;26166;48.264;11.436;2023-02-17T15:42:57;96891.69;;;11.01;58.34
10476;BME280;26166;48.264;11.436;2023-02-17T15:46:03;96882.81;;;11.02;59.33
10476;BME280;26166;48.264;11.436;2023-02-17T15:49:03;96888.09;;;11.02;58.38
10476;BME280;26166;48.264;11.436;2023-02-17T15:52:08;96887.88;;;10.95;58.69
10476;BME280;26166;48.264;11.436;2023-02-17T15:55:11;96903.97;;;10.92;58.81
10476;BME280;26166;48.264;11.436;2023-02-17T15:58:13;96902.47;;;10.90;58.87
10476;BME280;26166;48.264;11.436;2023-02-17T16:01:16;96896.25;;;10.91;59.32
10476;BME280;26166;48.264;11.436;2023-02-17T16:04:20;96895.09;;;10.93;58.57
10476;BME280;26166;48.264;11.436;2023-02-17T16:07:20;96903.97;;;10.92;58.87
10476;BME280;26166;48.264;11.436;2023-02-17T16:10:21;96899.84;;;10.90;58.68
10476;BME280;26166;48.264;11.436;2023-02-17T16:13:22;96895.72;;;10.87;59.00
10476;BME280;26166;48.264;11.436;2023-02-17T16:16:29;96912.00;;;10.91;59.44
10476;BME280;26166;48.264;11.436;2023-02-17T16:19:33;96909.69;;;10.88;58.96
10476;BME280;26166;48.264;11.436;2023-02-17T16:22:33;96896.69;;;10.86;59.38
10476;BME280;26166;48.264;11.436;2023-02-17T16:25:34;96902.09;;;10.84;59.65
10476;BME280;26166;48.264;11.436;2023-02-17T16:28:35;96897.16;;;10.81;59.78
10476;BME280;26166;48.264;11.436;2023-02-17T16:31:36;96901.72;;;10.79;59.60
10476;BME280;26166;48.264;11.436;2023-02-17T16:34:36;96903.00;;;10.75;60.40
10476;BME280;26166;48.264;11.436;2023-02-17T16:37:36;96912.94;;;10.81;59.51
10476;BME280;26166;48.264;11.436;2023-02-17T16:40:37;96901.78;;;10.88;59.38
10476;BME280;26166;48.264;11.436;2023-02-17T16:43:46;96898.56;;;10.94;59.91
10476;BME280;26166;48.264;11.436;2023-02-17T16:46:50;96907.78;;;10.98;59.37
10476;BME280;26166;48.264;11.436;2023-02-17T16:49:50;96909.28;;;11.00;59.01
10476;BME280;26166;48.264;11.436;2023-02-17T16:52:52;96909.97;;;11.02;58.62
10476;BME280;26166;48.264;11.436;2023-02-17T16:55:53;96914.38;;;11.02;58.89
10476;BME280;26166;48.264;11.436;2023-02-17T16:58:54;96916.88;;;11.03;58.69
10476;BME280;26166;48.264;11.436;2023-02-17T17:01:54;96922.13;;;11.03;58.70
10476;BME280;26166;48.264;11.436;2023-02-17T17:04:55;96918.50;;;11.04;58.75
10476;BME280;26166;48.264;11.436;2023-02-17T17:07:55;96903.03;;;11.01;58.78